»·PEaware :: N326MC KPAE-KOTH

N326MC :: KPAE-KOTH

FLIGHT INFORMATION

Flight Status: Arrived
Operator: Privately registered:
United States
More flights under this callsign
Pilot: Anonymous 5456 (5456)
Aircraft: MITSUBISHI MU-2 MARQUISE
(MU2)
More flights by this aircraft type
Origin: KPAE Snohomish Co
United States
Destination: KOTH North Bend Mun
United States
More flights between these airports :: More routes between these airports
Route: +PAINE4 SEA V27 ONP
File this flight plan on PilotEdge
Remarks:
Altitude:
(Current/Filed)
20,000ft
Speed:
(Current/Filed)
250kts
Departed: 27-Oct-17 09:06 PM
Arrived: 27-Oct-17 10:22 PM
Distance/Time
Traveled:
282nm/1:16
Distance/Time
To Go:
Arrived

Flight Plot

Page will automatically refresh every two minutes.

Flight plan parsing failed; only flown route is shown


Map Options




Map Legend


Flown Route
Filed Route
Departure Airport
Arrival Airport
Navaid (VOR, NDB)
Fix

Horizontal Profiles

Position Reports

Time Latitude Longitude Heading Altitude Ground
Speed
27-Oct-17 20:49 47.910237 -122.277923 228 609ft 0kts
27-Oct-17 20:50 47.910237 -122.277923 226 609ft 0kts
27-Oct-17 20:51 47.910237 -122.277923 226 609ft 0kts
27-Oct-17 20:52 47.910237 -122.277923 226 609ft 0kts
27-Oct-17 20:53 47.910237 -122.277923 226 609ft 0kts
27-Oct-17 20:54 47.910237 -122.277923 226 609ft 0kts
27-Oct-17 20:55 47.910237 -122.277923 227 609ft 0kts
27-Oct-17 20:56 47.910163 -122.278192 259 608ft 10kts
27-Oct-17 20:57 47.907574 -122.282295 223 609ft 29kts
27-Oct-17 20:58 47.900411 -122.283234 180 609ft 26kts
27-Oct-17 20:59 47.896825 -122.283767 269 609ft 0kts
27-Oct-17 21:00 47.896825 -122.283767 269 609ft 0kts
27-Oct-17 21:01 47.896825 -122.283767 269 609ft 0kts
27-Oct-17 21:02 47.896825 -122.283767 269 609ft 0kts
27-Oct-17 21:03 47.896825 -122.283767 269 609ft 0kts
27-Oct-17 21:04 47.896825 -122.283767 269 609ft 0kts
27-Oct-17 21:05 47.896825 -122.283768 269 609ft 0kts
27-Oct-17 21:06 47.896825 -122.283768 269 609ft 0kts
27-Oct-17 21:07 47.896825 -122.283768 269 609ft 0kts
27-Oct-17 21:08 47.896825 -122.283768 269 609ft 0kts
27-Oct-17 21:09 47.896825 -122.283768 269 609ft 0kts
27-Oct-17 21:10 47.897500 -122.285349 0 609ft 18kts
27-Oct-17 21:11 47.934259 -122.284368 358 1512ft 195kts
27-Oct-17 21:12 47.985864 -122.301077 292 3558ft 205kts
27-Oct-17 21:13 47.969832 -122.369238 186 6023ft 203kts
27-Oct-17 21:14 47.914095 -122.365251 176 8357ft 207kts
27-Oct-17 21:15 47.855126 -122.358621 174 10444ft 217kts
27-Oct-17 21:16 47.795909 -122.351634 173 12625ft 218kts
27-Oct-17 21:17 47.736556 -122.344507 175 14791ft 217kts
27-Oct-17 21:18 47.676257 -122.337330 178 16682ft 226kts
27-Oct-17 21:19 47.610892 -122.329976 179 18242ft 248kts
27-Oct-17 21:20 47.552247 -122.323222 178 19726ft 255kts
27-Oct-17 21:21 47.476091 -122.314406 178 20142ft 302kts
27-Oct-17 21:22 47.416935 -122.384231 250 20139ft 306kts
27-Oct-17 21:23 47.386181 -122.501860 251 20158ft 314kts
27-Oct-17 21:24 47.355119 -122.622034 251 20156ft 316kts
27-Oct-17 21:25 47.324419 -122.740383 251 20158ft 318kts
27-Oct-17 21:26 47.292881 -122.861345 251 20134ft 318kts
27-Oct-17 21:27 47.261034 -122.982973 251 20130ft 318kts
27-Oct-17 21:28 47.229290 -123.103566 251 20130ft 318kts
27-Oct-17 21:29 47.197180 -123.224900 251 20130ft 318kts
27-Oct-17 21:30 47.165052 -123.345668 251 20130ft 318kts
27-Oct-17 21:31 47.132651 -123.466820 251 20130ft 319kts
27-Oct-17 21:32 47.100125 -123.587821 251 20130ft 319kts
27-Oct-17 21:33 47.068188 -123.706025 250 20131ft 319kts
27-Oct-17 21:34 47.035495 -123.826414 250 20115ft 320kts
27-Oct-17 21:35 47.002466 -123.947436 250 20105ft 321kts
27-Oct-17 21:36 46.968981 -124.068438 250 20104ft 321kts
27-Oct-17 21:37 46.900055 -124.128460 174 20121ft 335kts
27-Oct-17 21:38 46.812565 -124.102132 168 20102ft 338kts
27-Oct-17 21:39 46.721854 -124.070891 167 20102ft 338kts
27-Oct-17 21:40 46.630750 -124.039553 167 20102ft 338kts
27-Oct-17 21:41 46.539352 -124.008221 167 20103ft 338kts
27-Oct-17 21:42 46.448093 -123.977047 167 20103ft 338kts
27-Oct-17 21:43 46.357060 -123.946050 167 20080ft 339kts
27-Oct-17 21:44 46.265480 -123.914961 167 20076ft 338kts
27-Oct-17 21:45 46.174136 -123.884072 167 20077ft 338kts
27-Oct-17 21:46 46.081467 -123.889117 186 20076ft 336kts
27-Oct-17 21:47 45.988616 -123.900059 185 20077ft 336kts
27-Oct-17 21:48 45.896656 -123.910720 185 20077ft 336kts
27-Oct-17 21:49 45.803919 -123.921441 185 20075ft 336kts
27-Oct-17 21:50 45.710771 -123.932170 185 20075ft 336kts
27-Oct-17 21:51 45.617752 -123.942849 185 20075ft 336kts
27-Oct-17 21:52 45.525407 -123.953520 183 20075ft 335kts
27-Oct-17 21:53 45.432820 -123.963955 183 20076ft 334kts
27-Oct-17 21:54 45.340719 -123.974425 183 20076ft 334kts
27-Oct-17 21:55 45.248155 -123.984911 184 20076ft 334kts
27-Oct-17 21:56 45.155916 -123.995624 184 20077ft 335kts
27-Oct-17 21:57 45.063412 -124.006136 184 20077ft 335kts
27-Oct-17 21:58 44.971466 -124.016441 184 20105ft 334kts
27-Oct-17 21:59 44.879238 -124.026757 184 20102ft 334kts
27-Oct-17 22:00 44.787039 -124.037035 184 20102ft 334kts
27-Oct-17 22:01 44.694577 -124.047307 184 20102ft 334kts
27-Oct-17 22:02 44.601986 -124.057562 184 20102ft 334kts
27-Oct-17 22:03 44.509879 -124.071227 186 20104ft 334kts
27-Oct-17 22:04 44.417836 -124.086147 186 19686ft 340kts
27-Oct-17 22:05 44.327209 -124.100399 186 17930ft 317kts
27-Oct-17 22:06 44.241822 -124.114393 185 16208ft 303kts
27-Oct-17 22:07 44.159750 -124.127692 185 14504ft 293kts
27-Oct-17 22:08 44.080604 -124.140463 185 12788ft 281kts
27-Oct-17 22:09 44.004372 -124.152754 185 11083ft 273kts
27-Oct-17 22:10 43.931085 -124.164505 185 9373ft 259kts
27-Oct-17 22:11 43.862295 -124.175890 185 7693ft 250kts
27-Oct-17 22:12 43.796675 -124.186579 186 6458ft 230kts
27-Oct-17 22:13 43.742415 -124.226682 215 5322ft 227kts
27-Oct-17 22:14 43.691233 -124.276168 215 4980ft 215kts
27-Oct-17 22:15 43.644398 -124.321565 215 4984ft 202kts
27-Oct-17 22:16 43.598289 -124.366037 215 4546ft 211kts
27-Oct-17 22:17 43.551680 -124.411106 215 3961ft 188kts
27-Oct-17 22:18 43.512276 -124.449316 215 3969ft 165kts
27-Oct-17 22:19 43.481029 -124.479472 215 3972ft 165kts
27-Oct-17 22:20 43.436657 -124.522207 215 3972ft 168kts
27-Oct-17 22:21 43.404320 -124.552006 194 3959ft 169kts
27-Oct-17 22:22 43.379023 -124.507445 106 3974ft 167kts
27-Oct-17 22:23 43.373835 -124.443485 90 3635ft 179kts
27-Oct-17 22:24 43.381078 -124.371174 84 2417ft 129kts
27-Oct-17 22:25 43.388684 -124.324387 65 1247ft 160kts
27-Oct-17 22:26 43.413560 -124.263459 60 84ft 151kts
27-Oct-17 22:27 43.421663 -124.243244 115 21ft 14kts
27-Oct-17 22:28 43.419396 -124.246143 240 21ft 13kts
27-Oct-17 22:29 43.417580 -124.247043 240 21ft 0kts

Navigation Log

Ident Type
Flight plan parsing failed, navigation log unavailable